Time;durP1;ratioP1;P1;durP2;ratioP2;P2;SDS_P1;SDS_P2;PMS_P1;PMS_P2;Temp;Humidity;BMP_temperature;BMP_pressure;BME280_temperature;BME280_humidity;BME280_pressure;Samples;Min_cycle;Max_cycle;Signal;HPM_P1;HPM_P2
2022/05/23 00:01:54;;;;;;;3.60;1.42;;;14.00;97.60;;;;;;5082653;28;20049;-82
2022/05/23 00:04:20;;;;;;;2.88;1.30;;;13.90;97.50;;;;;;5100124;28;20070;-84
2022/05/23 00:06:46;;;;;;;4.50;1.55;;;13.90;97.50;;;;;;5099608;28;20093;-79
2022/05/23 00:09:11;;;;;;;6.25;1.40;;;13.90;97.50;;;;;;5061143;28;20500;-81
2022/05/23 00:11:37;;;;;;;3.92;1.30;;;13.90;97.50;;;;;;5057096;28;20052;-87
2022/05/23 00:14:03;;;;;;;4.00;1.30;;;13.80;97.50;;;;;;5057345;28;20362;-81
2022/05/23 00:16:33;;;;;;;3.97;1.30;;;13.80;97.50;;;;;;5073767;28;20404;-80
2022/05/23 00:18:59;;;;;;;3.95;1.40;;;13.80;97.60;;;;;;5073306;28;20083;-80
2022/05/23 00:21:25;;;;;;;3.83;1.45;;;13.70;97.50;;;;;;5073408;28;20044;-81
2022/05/23 00:23:50;;;;;;;3.22;1.50;;;13.70;97.60;;;;;;5056732;28;20505;-80
2022/05/23 00:26:17;;;;;;;5.30;1.58;;;13.70;97.60;;;;;;5073655;28;20044;-80
2022/05/23 00:28:43;;;;;;;5.18;1.38;;;13.60;97.50;;;;;;5074222;28;20036;-81
2022/05/23 00:31:10;;;;;;;4.25;1.55;;;13.60;97.70;;;;;;5074537;28;20446;-80
2022/05/23 00:36:22;;;;;;;3.95;1.50;;;13.60;97.80;;;;;;5059200;28;20088;-80
2022/05/23 00:38:48;;;;;;;4.00;1.50;;;13.50;98.00;;;;;;5056765;28;20049;-80
2022/05/23 00:44:31;;;;;;;4.15;1.30;;;13.40;98.10;;;;;;5072925;28;20496;-80
2022/05/23 00:47:00;;;;;;;;;;;13.40;98.10;;;;;;5056365;28;20152;-80
2022/05/23 00:49:30;;;;;;;3.58;1.42;;;13.30;98.00;;;;;;5072948;28;19920;-81
2022/05/23 00:51:57;;;;;;;3.65;1.42;;;13.30;98.20;;;;;;5072742;28;20044;-81
2022/05/23 00:54:22;;;;;;;4.45;1.60;;;13.30;98.20;;;;;;5074062;28;20095;-81
2022/05/23 00:56:49;;;;;;;3.95;1.77;;;13.30;98.20;;;;;;5073751;28;20079;-81
2022/05/23 00:59:18;;;;;;;4.60;1.48;;;13.30;98.10;;;;;;5056065;28;20033;-82
2022/05/23 01:01:43;;;;;;;3.00;1.40;;;13.20;98.20;;;;;;5072708;28;20508;-81
2022/05/23 01:04:09;;;;;;;3.60;1.50;;;13.20;98.40;;;;;;5072983;28;20052;-81
2022/05/23 01:06:35;;;;;;;2.70;1.55;;;13.20;98.60;;;;;;5072615;28;20044;-81
2022/05/23 01:09:01;;;;;;;3.22;1.65;;;13.20;98.70;;;;;;5072131;28;20075;-80
2022/05/23 01:11:27;;;;;;;3.03;1.27;;;13.10;98.50;;;;;;5072572;28;20056;-79
2022/05/23 01:13:55;;;;;;;5.13;1.60;;;13.10;98.50;;;;;;5072336;28;20130;-81
2022/05/23 01:16:22;;;;;;;16.08;2.13;;;13.10;98.50;;;;;;5072571;28;20051;-80
2022/05/23 01:18:48;;;;;;;2.97;1.63;;;13.10;98.70;;;;;;5073557;28;20052;-81
2022/05/23 01:21:49;;;;;;;4.30;1.50;;;13.00;98.80;;;;;;5055702;28;20049;-81
2022/05/23 01:24:21;;;;;;;5.50;1.63;;;13.10;98.90;;;;;;5057302;28;20048;-81
2022/05/23 01:26:48;;;;;;;5.22;1.52;;;13.00;99.00;;;;;;5055655;28;20080;-91
2022/05/23 01:29:14;;;;;;;5.18;1.60;;;13.00;99.00;;;;;;5072235;28;20040;-80
2022/05/23 01:31:40;;;;;;;3.92;1.77;;;13.00;99.10;;;;;;5073377;28;20080;-79
2022/05/23 01:34:05;;;;;;;6.80;1.80;;;13.00;99.10;;;;;;5072055;28;20051;-80
2022/05/23 01:36:31;;;;;;;2.78;1.58;;;13.00;99.20;;;;;;5072209;28;20040;-81
2022/05/23 01:38:56;;;;;;;3.67;1.67;;;13.10;99.30;;;;;;5072895;28;20511;-81
2022/05/23 01:41:22;;;;;;;5.65;1.90;;;13.10;99.20;;;;;;5072174;28;20129;-80
2022/05/23 01:43:48;;;;;;;4.22;1.70;;;13.10;99.20;;;;;;5073212;28;20055;-80
2022/05/23 01:46:13;;;;;;;3.95;1.52;;;13.10;99.20;;;;;;5071840;28;20055;-80
2022/05/23 01:48:39;;;;;;;3.15;1.70;;;13.20;99.30;;;;;;5073487;28;20137;-80
2022/05/23 01:51:05;;;;;;;6.10;1.88;;;13.20;99.20;;;;;;5073656;28;20101;-81
2022/05/23 01:53:30;;;;;;;4.70;1.90;;;13.20;99.20;;;;;;5097372;28;20024;-81
2022/05/23 01:55:58;;;;;;;1.65;1.55;;;13.30;99.20;;;;;;5096316;28;20075;-91
2022/05/23 02:01:13;;;;;;;4.82;1.70;;;13.30;99.10;;;;;;5097451;28;20043;-86
2022/05/23 02:03:39;;;;;;;4.47;2.00;;;13.30;99.00;;;;;;5098204;28;20037;-82
2022/05/23 02:06:04;;;;;;;2.65;1.50;;;13.30;99.00;;;;;;5097202;28;20031;-87
2022/05/23 02:08:30;;;;;;;4.47;1.90;;;13.30;99.10;;;;;;5089309;28;20041;-81
2022/05/23 02:10:56;;;;;;;3.05;1.77;;;13.30;99.10;;;;;;5071787;28;20056;-81
2022/05/23 02:13:21;;;;;;;5.32;1.58;;;13.30;99.10;;;;;;5071947;28;20041;-81
2022/05/23 02:15:47;;;;;;;3.88;1.98;;;13.30;99.00;;;;;;5072054;28;20044;-81
2022/05/23 02:18:13;;;;;;;6.10;1.90;;;13.30;99.00;;;;;;5071290;28;20033;-80
2022/05/23 02:20:38;;;;;;;2.63;1.67;;;13.30;99.20;;;;;;5071486;28;20127;-81
2022/05/23 02:23:04;;;;;;;3.15;1.63;;;13.30;98.90;;;;;;5071437;28;20127;-81
2022/05/23 02:25:30;;;;;;;4.22;2.00;;;13.30;98.60;;;;;;5055124;28;20060;-80
2022/05/23 02:27:56;;;;;;;5.63;2.00;;;13.40;98.90;;;;;;5072429;28;20052;-86
2022/05/23 02:30:21;;;;;;;5.43;2.08;;;13.30;99.10;;;;;;5071580;28;20373;-80
2022/05/23 02:32:47;;;;;;;5.90;2.00;;;13.30;99.10;;;;;;5071271;28;20053;-80
2022/05/23 02:35:14;;;;;;;3.92;1.60;;;13.30;99.10;;;;;;5070955;28;20051;-80
2022/05/23 02:37:40;;;;;;;3.70;2.30;;;13.30;99.20;;;;;;5071669;28;20079;-80
2022/05/23 02:40:06;;;;;;;3.40;2.00;;;13.30;99.50;;;;;;5071430;28;20071;-81
2022/05/23 02:42:31;;;;;;;4.00;1.90;;;13.30;99.60;;;;;;5071388;28;20437;-82
2022/05/23 02:44:57;;;;;;;4.53;1.90;;;13.30;99.60;;;;;;5054745;28;20123;-81
2022/05/23 02:47:23;;;;;;;5.03;2.20;;;13.20;99.60;;;;;;5088290;28;20060;-81
2022/05/23 02:49:48;;;;;;;5.03;2.20;;;13.20;99.60;;;;;;5072305;28;20052;-80
2022/05/23 02:52:14;;;;;;;3.70;2.35;;;13.20;99.60;;;;;;5072111;28;20052;-80
2022/05/23 02:54:40;;;;;;;4.85;2.20;;;13.20;99.80;;;;;;5071458;28;20052;-80
2022/05/23 02:57:06;;;;;;;4.28;2.22;;;13.20;99.90;;;;;;5072155;28;20048;-80
2022/05/23 02:59:31;;;;;;;5.05;2.60;;;13.10;99.90;;;;;;5071122;28;20048;-82
2022/05/23 03:04:42;;;;;;;5.63;2.33;;;13.10;99.90;;;;;;5072450;28;20049;-80
2022/05/23 03:07:08;;;;;;;7.50;2.38;;;13.00;99.90;;;;;;5054281;28;20040;-80
2022/05/23 03:09:33;;;;;;;5.13;2.30;;;13.00;99.90;;;;;;5074447;28;20458;-80
2022/05/23 03:11:59;;;;;;;4.03;2.35;;;13.00;99.90;;;;;;5076092;28;20048;-80
2022/05/23 03:14:28;;;;;;;4.93;2.58;;;13.00;99.90;;;;;;5074771;28;20527;-80
2022/05/23 03:16:58;;;;;;;6.45;2.67;;;12.90;99.90;;;;;;5058117;28;20052;-80
2022/05/23 03:19:24;;;;;;;3.90;2.63;;;12.90;99.90;;;;;;5075844;28;20040;-80
2022/05/23 03:27:18;;;;;;;4.75;3.05;;;12.70;99.90;;;;;;5073890;28;20565;-80
2022/05/23 03:29:44;;;;;;;4.93;2.83;;;12.70;99.90;;;;;;5075896;28;20044;-80
2022/05/23 03:32:10;;;;;;;5.00;2.60;;;12.70;99.90;;;;;;5075449;28;20494;-81
2022/05/23 03:34:36;;;;;;;5.57;2.65;;;12.70;99.90;;;;;;5074680;28;20127;-81
2022/05/23 03:37:02;;;;;;;3.60;2.85;;;12.60;99.90;;;;;;5075718;28;20091;-81
2022/05/23 03:39:28;;;;;;;5.18;2.90;;;12.60;99.90;;;;;;5057470;28;20084;-81
2022/05/23 03:41:54;;;;;;;6.15;3.00;;;12.60;99.90;;;;;;5075446;28;20040;-81
2022/05/23 03:44:19;;;;;;;4.75;2.40;;;12.60;99.90;;;;;;5057709;28;20052;-81
2022/05/23 03:46:45;;;;;;;4.50;2.90;;;12.60;99.90;;;;;;5058197;28;20078;-80
2022/05/23 03:49:11;;;;;;;6.57;3.03;;;12.60;99.90;;;;;;5085625;28;20068;-81
2022/05/23 03:51:37;;;;;;;6.05;2.60;;;12.60;99.90;;;;;;5075238;28;20041;-81
2022/05/23 03:54:03;;;;;;;4.75;2.90;;;12.60;99.90;;;;;;5041009;28;20129;-81
2022/05/23 03:56:29;;;;;;;4.65;2.95;;;12.60;99.90;;;;;;5075989;28;20053;-76
2022/05/23 03:58:55;;;;;;;5.13;3.10;;;12.60;99.90;;;;;;5087070;28;20376;-77
2022/05/23 04:01:22;;;;;;;4.75;2.83;;;12.60;99.90;;;;;;5087184;28;20457;-77
2022/05/23 04:03:48;;;;;;;5.80;2.83;;;12.70;99.90;;;;;;5084124;28;20088;-77
2022/05/23 04:06:13;;;;;;;5.97;2.88;;;12.70;99.90;;;;;;5082297;28;20132;-77
2022/05/23 04:08:39;;;;;;;5.13;2.58;;;12.70;99.90;;;;;;5075438;28;20488;-80
2022/05/23 04:11:05;;;;;;;4.28;3.00;;;12.70;99.90;;;;;;5074662;28;20064;-81
2022/05/23 04:13:31;;;;;;;3.72;2.67;;;12.70;99.90;;;;;;5073233;28;20515;-81
2022/05/23 04:15:56;;;;;;;3.85;2.65;;;12.70;99.90;;;;;;5057351;28;20109;-80
2022/05/23 04:18:22;;;;;;;4.65;2.97;;;12.70;99.90;;;;;;5073271;28;20067;-81
2022/05/23 04:20:48;;;;;;;3.65;2.78;;;12.70;99.90;;;;;;5074150;28;20048;-80
2022/05/23 04:23:13;;;;;;;4.63;3.00;;;12.70;99.90;;;;;;5073434;28;20048;-81
2022/05/23 04:25:44;;;;;;;5.10;2.85;;;12.70;99.90;;;;;;5073326;28;20048;-80
2022/05/23 04:28:11;;;;;;;4.65;3.20;;;12.70;99.90;;;;;;5074708;28;20119;-80
2022/05/23 04:30:36;;;;;;;5.22;3.03;;;12.70;99.90;;;;;;5074532;28;20052;-81
2022/05/23 04:35:48;;;;;;;7.80;3.40;;;12.70;99.90;;;;;;5059353;28;20055;-81
2022/05/23 04:38:14;;;;;;;5.00;2.80;;;12.80;99.90;;;;;;5056482;28;20063;-82
2022/05/23 04:40:39;;;;;;;6.25;3.55;;;12.80;99.90;;;;;;5074303;28;20052;-80
2022/05/23 04:43:05;;;;;;;4.93;3.42;;;12.90;99.90;;;;;;5074391;28;20055;-79
2022/05/23 04:45:31;;;;;;;6.93;3.60;;;12.90;99.90;;;;;;5073098;28;20068;-82
2022/05/23 04:50:57;;;;;;;6.30;3.40;;;12.90;99.90;;;;;;5032237;28;20050;-82
2022/05/23 04:53:23;;;;;;;4.43;3.00;;;12.90;99.90;;;;;;5061444;28;20060;-81
2022/05/23 04:55:48;;;;;;;4.65;3.10;;;13.00;99.90;;;;;;5074765;28;20231;-82
2022/05/23 04:58:14;;;;;;;6.18;3.30;;;13.00;99.90;;;;;;5076217;28;20118;-84
2022/05/23 05:00:40;;;;;;;3.85;2.90;;;13.10;99.90;;;;;;5056072;28;20041;-82
2022/05/23 05:03:06;;;;;;;6.03;3.35;;;13.10;99.90;;;;;;5072803;28;20049;-86
2022/05/23 05:05:33;;;;;;;4.90;3.30;;;13.10;99.90;;;;;;5039893;28;20045;-85
2022/05/23 05:07:59;;;;;;;8.65;3.92;;;13.20;99.90;;;;;;5075669;28;20428;-88
2022/05/23 05:10:25;;;;;;;4.82;3.13;;;13.30;99.90;;;;;;5074038;28;20131;-92
2022/05/23 05:12:51;;;;;;;6.43;3.40;;;13.30;99.90;;;;;;5043494;28;20083;-86
2022/05/23 05:15:17;;;;;;;4.50;3.05;;;13.40;99.90;;;;;;5057639;28;20099;-88
2022/05/23 05:17:44;;;;;;;5.38;3.40;;;13.40;99.90;;;;;;5039079;28;20062;-83
2022/05/23 05:20:10;;;;;;;6.10;3.55;;;13.40;99.90;;;;;;5078033;28;20048;-83
2022/05/23 05:22:36;;;;;;;5.28;3.40;;;13.50;99.90;;;;;;5057091;28;20052;-83
2022/05/23 05:25:03;;;;;;;3.88;3.38;;;13.50;99.90;;;;;;5074195;28;20048;-84
2022/05/23 05:27:29;;;;;;;5.05;3.40;;;13.50;99.90;;;;;;5056549;28;20064;-84
2022/05/23 05:29:55;;;;;;;4.47;3.63;;;13.60;99.90;;;;;;5073669;28;20107;-83
2022/05/23 05:32:26;;;;;;;7.18;3.60;;;13.60;99.90;;;;;;5088831;28;20048;-90
2022/05/23 05:35:00;;;;;;;5.85;3.80;;;13.60;99.90;;;;;;5057409;28;20044;-83
2022/05/23 05:37:31;;;;;;;6.43;3.20;;;13.70;99.90;;;;;;5074293;28;20098;-85
2022/05/23 05:39:56;;;;;;;;;;;13.70;99.90;;;;;;5057015;28;20044;-84
2022/05/23 05:42:28;;;;;;;5.18;3.75;;;13.70;99.90;;;;;;5078604;28;19928;-89
2022/05/23 05:44:58;;;;;;;9.05;3.65;;;13.70;99.90;;;;;;5097893;28;20020;-85
2022/05/23 05:47:24;;;;;;;4.47;3.63;;;13.80;99.90;;;;;;5064469;28;20063;-90
2022/05/23 05:49:53;;;;;;;8.48;3.25;;;13.80;99.90;;;;;;5098148;28;20040;-84
2022/05/23 05:52:20;;;;;;;5.18;3.88;;;13.80;99.90;;;;;;5081641;28;20088;-84
2022/05/23 05:54:46;;;;;;;6.93;3.95;;;13.80;99.90;;;;;;5079871;28;20068;-84
2022/05/23 05:57:12;;;;;;;5.45;3.85;;;13.90;99.90;;;;;;5080194;28;20040;-84
2022/05/23 05:59:37;;;;;;;5.85;4.00;;;13.90;99.90;;;;;;5052226;28;20111;-83
2022/05/23 06:02:06;;;;;;;7.97;4.05;;;14.00;99.90;;;;;;5072278;28;20066;-84
2022/05/23 06:04:32;;;;;;;6.72;3.30;;;14.00;99.90;;;;;;5055936;28;20044;-83
2022/05/23 06:12:26;;;;;;;5.97;3.83;;;14.10;99.90;;;;;;5072206;28;20051;-84
2022/05/23 06:14:52;;;;;;;5.88;3.70;;;14.10;99.90;;;;;;5055106;28;20045;-83
2022/05/23 06:17:18;;;;;;;6.15;3.60;;;14.10;99.90;;;;;;5071783;28;20044;-84
2022/05/23 06:19:45;;;;;;;7.25;3.63;;;14.20;99.90;;;;;;5071485;28;20477;-84
2022/05/23 06:22:11;;;;;;;9.45;3.67;;;14.20;99.90;;;;;;5055402;28;20048;-83
2022/05/23 06:24:37;;;;;;;5.40;3.70;;;14.30;99.90;;;;;;5054587;28;20066;-83
2022/05/23 06:27:06;;;;;;;6.28;3.30;;;14.40;99.90;;;;;;5071510;28;20123;-83
2022/05/23 06:29:32;;;;;;;7.32;3.60;;;14.50;99.90;;;;;;5072361;28;20036;-84
2022/05/23 06:31:57;;;;;;;6.38;3.50;;;14.60;99.90;;;;;;5071759;28;20067;-82
2022/05/23 06:34:23;;;;;;;6.25;3.50;;;14.80;99.90;;;;;;5071658;28;20047;-82
2022/05/23 06:36:49;;;;;;;6.60;3.30;;;14.80;99.90;;;;;;5072284;28;20052;-83
2022/05/23 06:39:14;;;;;;;7.85;3.30;;;14.90;99.90;;;;;;5072677;28;20485;-83
2022/05/23 06:41:40;;;;;;;5.82;3.40;;;15.10;99.90;;;;;;5072667;28;20079;-83
2022/05/23 06:44:06;;;;;;;5.53;3.70;;;15.20;99.90;;;;;;5074828;28;20399;-83
2022/05/23 06:46:31;;;;;;;4.47;3.40;;;15.30;99.90;;;;;;5076774;28;20537;-89
2022/05/23 06:48:57;;;;;;;7.53;3.40;;;15.40;99.90;;;;;;5075369;28;20450;-82
2022/05/23 06:51:23;;;;;;;7.68;3.70;;;15.50;99.90;;;;;;5076703;28;20044;-82
2022/05/23 06:53:48;;;;;;;4.88;3.40;;;15.60;99.90;;;;;;5076394;28;20162;-82
2022/05/23 06:56:14;;;;;;;7.20;3.30;;;15.70;99.90;;;;;;5076623;28;20563;-82
2022/05/23 06:58:40;;;;;;;6.65;3.20;;;15.80;99.90;;;;;;5075288;28;20052;-82
2022/05/23 07:01:05;;;;;;;7.22;3.10;;;15.80;99.90;;;;;;5058842;28;20048;-82
2022/05/23 07:03:31;;;;;;;7.45;3.50;;;15.90;99.90;;;;;;5075468;28;20036;-82
2022/05/23 07:14:09;;;;;;;6.20;3.58;;;16.30;99.80;;;;;;5075286;28;20055;-83
2022/05/23 07:16:35;;;;;;;6.20;3.33;;;16.40;99.60;;;;;;5075458;28;20388;-83
2022/05/23 07:19:02;;;;;;;6.82;3.65;;;16.50;99.50;;;;;;5074835;28;20530;-82
2022/05/23 07:21:28;;;;;;;5.90;3.30;;;16.60;99.20;;;;;;5075153;28;20443;-82
2022/05/23 07:23:55;;;;;;;7.60;3.47;;;16.70;99.10;;;;;;5074740;28;20045;-82
2022/05/23 07:26:20;;;;;;;5.53;3.50;;;16.80;99.00;;;;;;5075049;28;20052;-83
2022/05/23 07:28:47;;;;;;;4.90;3.30;;;16.80;99.00;;;;;;5075849;28;20473;-82
2022/05/23 07:31:13;;;;;;;6.32;3.30;;;16.90;99.00;;;;;;5079714;28;20051;-83
2022/05/23 07:33:39;;;;;;;5.72;3.50;;;17.00;98.90;;;;;;5041394;28;20040;-83
2022/05/23 07:36:05;;;;;;;7.43;3.42;;;17.10;98.50;;;;;;5081058;28;20041;-86
2022/05/23 07:38:31;;;;;;;7.32;3.67;;;17.10;98.40;;;;;;5083783;28;20040;-84
2022/05/23 07:40:58;;;;;;;4.45;3.40;;;17.10;98.30;;;;;;5100571;28;20020;-83
2022/05/23 07:43:23;;;;;;;4.35;3.10;;;17.20;98.40;;;;;;5081746;28;20052;-84
2022/05/23 07:45:50;;;;;;;7.57;3.80;;;17.20;98.50;;;;;;5099990;28;20044;-84
2022/05/23 07:48:16;;;;;;;9.25;3.85;;;17.30;98.20;;;;;;5083334;28;20048;-86
2022/05/23 07:50:45;;;;;;;7.28;3.55;;;17.30;98.30;;;;;;5099592;28;20041;-87
2022/05/23 08:01:27;;;;;;;8.55;3.50;;;17.60;97.90;;;;;;5075450;28;20488;-83
2022/05/23 08:03:54;;;;;;;8.60;3.80;;;17.70;97.70;;;;;;5057368;28;20048;-82
2022/05/23 08:06:19;;;;;;;6.93;3.60;;;17.70;97.00;;;;;;5074084;28;20056;-83
2022/05/23 08:08:48;;;;;;;7.57;3.30;;;17.80;97.40;;;;;;5074852;28;20044;-84
2022/05/23 08:11:14;;;;;;;6.32;3.50;;;17.90;98.10;;;;;;5075395;28;20075;-83
2022/05/23 08:13:41;;;;;;;3.97;2.90;;;18.00;98.20;;;;;;5075618;28;20056;-83
2022/05/23 08:16:07;;;;;;;4.90;3.00;;;18.10;97.70;;;;;;5074952;28;20123;-82
2022/05/23 08:18:33;;;;;;;4.55;3.10;;;18.20;97.70;;;;;;5057349;28;20487;-84
2022/05/23 08:20:58;;;;;;;7.47;3.10;;;18.20;97.80;;;;;;5057073;28;20101;-83
2022/05/23 08:23:24;;;;;;;6.35;3.13;;;18.30;97.70;;;;;;5073780;28;20131;-83
2022/05/23 08:25:50;;;;;;;9.25;3.60;;;18.30;97.50;;;;;;5073568;28;20052;-84
2022/05/23 08:28:16;;;;;;;6.13;3.60;;;18.40;97.70;;;;;;5057142;28;20044;-83
2022/05/23 08:30:41;;;;;;;7.35;3.50;;;18.40;97.80;;;;;;5056923;28;20044;-83
2022/05/23 08:33:07;;;;;;;4.60;3.03;;;18.50;97.40;;;;;;5073212;28;20083;-83
2022/05/23 08:35:33;;;;;;;6.97;2.95;;;18.60;97.10;;;;;;5075040;28;20059;-84
2022/05/23 08:37:59;;;;;;;4.50;3.08;;;18.70;97.00;;;;;;5074757;28;20634;-83
2022/05/23 08:40:34;;;;;;;7.53;3.00;;;18.80;97.00;;;;;;5073414;28;20396;-83
2022/05/23 08:42:59;;;;;;;5.18;2.70;;;18.90;96.70;;;;;;5073849;28;20489;-83
2022/05/23 08:45:31;;;;;;;4.82;2.83;;;19.00;96.80;;;;;;5041045;28;20040;-82
2022/05/23 08:48:30;;;;;;;4.80;2.42;;;19.20;96.30;;;;;;5073687;28;20044;-83
2022/05/23 08:50:59;;;;;;;5.60;2.90;;;19.40;96.20;;;;;;5074228;28;20105;-84
2022/05/23 08:53:50;;;;;;;5.55;3.13;;;19.40;96.20;;;;;;5057405;28;20076;-83
2022/05/23 08:56:23;;;;;;;7.18;2.85;;;19.50;94.90;;;;;;5073458;28;20083;-84
2022/05/23 08:59:18;;;;;;;6.30;2.75;;;19.60;95.00;;;;;;5073618;28;20408;-83
2022/05/23 09:01:48;;;;;;;6.28;2.90;;;19.70;94.60;;;;;;5107014;28;20515;-83
2022/05/23 09:04:22;;;;;;;4.65;3.22;;;19.80;94.70;;;;;;5056957;28;20084;-83
2022/05/23 09:06:49;;;;;;;5.53;3.10;;;19.90;94.80;;;;;;5057576;28;20057;-83
2022/05/23 09:09:20;;;;;;;4.82;3.00;;;19.90;94.30;;;;;;5055916;28;20041;-83
2022/05/23 09:11:51;;;;;;;5.50;2.80;;;20.00;93.90;;;;;;5055863;28;20187;-83
2022/05/23 09:14:18;;;;;;;13.70;3.00;;;20.00;94.10;;;;;;5040623;28;20041;-82
2022/05/23 09:16:51;;;;;;;7.82;3.17;;;20.10;94.90;;;;;;5072886;28;20169;-82
2022/05/23 09:19:26;;;;;;;6.47;3.05;;;20.10;94.60;;;;;;5072813;28;20057;-83
2022/05/23 09:24:43;;;;;;;6.13;3.15;;;20.20;93.30;;;;;;5072921;28;20400;-82
2022/05/23 09:27:19;;;;;;;8.32;3.70;;;20.40;93.50;;;;;;5057285;28;20194;-83
2022/05/23 09:29:49;;;;;;;6.10;2.95;;;20.50;92.60;;;;;;5075316;28;20119;-82
2022/05/23 09:32:17;;;;;;;7.15;2.95;;;20.50;92.60;;;;;;5060893;28;20052;-83
2022/05/23 09:34:55;;;;;;;8.23;3.00;;;20.70;92.80;;;;;;5073363;28;20067;-83
2022/05/23 09:37:42;;;;;;;7.55;2.70;;;20.90;92.10;;;;;;5081798;28;20058;-84
2022/05/23 09:40:09;;;;;;;13.07;3.47;;;21.10;91.90;;;;;;5081297;28;20055;-84
2022/05/23 09:48:17;;;;;;;4.18;2.60;;;21.60;91.40;;;;;;5083296;28;20044;-84
2022/05/23 09:50:45;;;;;;;4.90;2.25;;;21.70;92.00;;;;;;5081117;28;20028;-83
2022/05/23 09:53:24;;;;;;;6.57;2.40;;;21.70;90.70;;;;;;5063138;28;20508;-83
2022/05/23 09:55:50;;;;;;;6.60;2.40;;;21.80;90.20;;;;;;5059792;28;20044;-82
2022/05/23 09:58:45;;;;;;;4.18;2.25;;;21.80;90.30;;;;;;5057154;28;20067;-82
2022/05/23 10:01:10;;;;;;;4.10;2.13;;;21.90;89.10;;;;;;5054846;28;20060;-83
2022/05/23 10:03:46;;;;;;;5.72;2.10;;;21.90;88.80;;;;;;5072516;28;20052;-83
2022/05/23 10:06:12;;;;;;;5.07;1.63;;;22.00;87.60;;;;;;5057871;28;20396;-83
2022/05/23 10:08:43;;;;;;;4.22;2.17;;;22.10;87.10;;;;;;5056271;28;20051;-83
2022/05/23 10:11:26;;;;;;;2.85;1.67;;;22.10;85.70;;;;;;5056364;28;20139;-83
2022/05/23 10:14:01;;;;;;;6.93;1.92;;;22.20;84.30;;;;;;5056411;28;20048;-82
2022/05/23 10:16:52;;;;;;;3.47;2.00;;;22.30;83.70;;;;;;5056020;28;20486;-83
2022/05/23 10:19:31;;;;;;;4.65;1.80;;;22.30;84.80;;;;;;5066785;28;20052;-81
2022/05/23 10:22:19;;;;;;;6.18;2.13;;;22.20;85.50;;;;;;5073530;28;20041;-83
2022/05/23 10:24:57;;;;;;;5.75;1.98;;;22.20;83.50;;;;;;5072563;28;20048;-83
2022/05/23 10:28:00;;;;;;;3.90;1.98;;;22.20;83.80;;;;;;5038865;28;20500;-82
2022/05/23 10:30:32;;;;;;;5.18;2.03;;;22.30;83.00;;;;;;5071864;28;20508;-82
2022/05/23 10:33:08;;;;;;;2.42;1.80;;;22.30;82.50;;;;;;5072797;28;20400;-83
2022/05/23 10:36:01;;;;;;;4.65;2.10;;;22.40;82.40;;;;;;5056284;28;20498;-83
2022/05/23 10:44:24;;;;;;;8.50;2.03;;;22.60;78.80;;;;;;5057794;28;20052;-82
2022/05/23 10:47:10;;;;;;;5.97;1.58;;;22.50;81.10;;;;;;5073349;28;20056;-83
2022/05/23 10:49:45;;;;;;;3.17;1.50;;;22.60;80.30;;;;;;5072591;28;20067;-84
2022/05/23 10:52:41;;;;;;;4.18;1.80;;;22.60;77.50;;;;;;5071749;28;20396;-84
2022/05/23 10:55:19;;;;;;;3.83;1.98;;;22.60;77.70;;;;;;5046576;28;20053;-84
2022/05/23 10:58:30;;;;;;;5.57;1.90;;;22.50;78.90;;;;;;5072465;28;20045;-84
2022/05/23 11:01:19;;;;;;;5.03;1.85;;;22.60;77.90;;;;;;5051090;28;20060;-84
2022/05/23 11:04:07;;;;;;;7.50;1.90;;;22.60;76.80;;;;;;5057678;28;20078;-84
2022/05/23 11:06:41;;;;;;;2.95;1.80;;;22.70;77.40;;;;;;5071524;28;20124;-84
2022/05/23 11:09:29;;;;;;;4.95;1.70;;;22.80;76.00;;;;;;5071617;28;20132;-89
2022/05/23 11:12:22;;;;;;;5.55;1.85;;;22.80;74.40;;;;;;5071368;28;20052;-84
2022/05/23 11:15:13;;;;;;;4.80;1.90;;;22.80;72.70;;;;;;5071908;28;20439;-84
2022/05/23 11:17:57;;;;;;;3.78;1.83;;;22.90;72.30;;;;;;5071958;28;20053;-84
2022/05/23 11:20:32;;;;;;;5.78;2.10;;;22.90;72.00;;;;;;5071816;28;20424;-84
2022/05/23 11:23:20;;;;;;;5.72;1.73;;;22.90;73.10;;;;;;5022361;28;20053;-84
2022/05/23 11:25:49;;;;;;;7.13;2.63;;;22.90;74.40;;;;;;5071470;28;20136;-84
2022/05/23 11:34:43;;;;;;;6.82;2.00;;;23.10;74.10;;;;;;5060464;28;20044;-84
2022/05/23 11:40:01;;;;;;;6.05;2.60;;;23.00;74.40;;;;;;5060087;28;20091;-84
2022/05/23 11:42:49;;;;;;;5.80;2.10;;;23.00;73.10;;;;;;5058941;28;20033;-83
2022/05/23 11:51:30;;;;;;;4.63;2.08;;;23.30;72.20;;;;;;5100237;28;20029;-84
2022/05/23 11:54:09;;;;;;;5.57;1.80;;;23.40;73.30;;;;;;5100600;28;20058;-85
2022/05/23 11:56:43;;;;;;;4.03;1.73;;;23.50;74.40;;;;;;5066439;28;20090;-84
2022/05/23 11:59:25;;;;;;;3.75;1.83;;;23.60;73.90;;;;;;5083191;28;20048;-84
2022/05/23 12:02:10;;;;;;;4.25;1.70;;;23.70;72.40;;;;;;5068359;28;20044;-84
2022/05/23 12:04:52;;;;;;;2.97;1.40;;;23.90;71.10;;;;;;5115987;28;20066;-83
2022/05/23 12:07:55;;;;;;;3.20;1.60;;;24.00;70.30;;;;;;5099477;28;20178;-88
2022/05/23 12:10:21;;;;;;;4.60;1.80;;;24.10;69.30;;;;;;5067398;28;20049;-83
2022/05/23 12:12:51;;;;;;;3.50;1.52;;;24.10;68.40;;;;;;5075466;28;20063;-83
2022/05/23 12:15:46;;;;;;;3.03;1.77;;;24.10;67.70;;;;;;5074566;28;20108;-82
2022/05/23 12:18:23;;;;;;;4.38;1.48;;;24.10;68.80;;;;;;5074771;28;20056;-83
2022/05/23 12:20:59;;;;;;;5.55;1.63;;;24.00;68.60;;;;;;5075746;28;20055;-83
2022/05/23 12:23:31;;;;;;;2.53;1.42;;;24.00;67.70;;;;;;5074449;28;20512;-82
2022/05/23 12:26:14;;;;;;;2.88;1.70;;;24.00;66.50;;;;;;5075128;28;20048;-83
2022/05/23 12:28:59;;;;;;;3.35;1.67;;;24.00;66.60;;;;;;5073520;28;20051;-82
2022/05/23 12:31:27;;;;;;;5.07;2.30;;;23.90;65.40;;;;;;5057150;28;20056;-82
2022/05/23 12:34:02;;;;;;;4.95;1.83;;;23.80;66.20;;;;;;5057317;28;20044;-83
2022/05/23 12:36:29;;;;;;;7.63;1.83;;;23.80;68.10;;;;;;5075735;28;20404;-88
2022/05/23 12:39:03;;;;;;;4.57;1.63;;;23.70;67.20;;;;;;5057331;28;20045;-82
2022/05/23 12:41:31;;;;;;;3.00;1.80;;;23.60;67.90;;;;;;5072847;28;20052;-81
2022/05/23 12:44:31;;;;;;;3.90;1.80;;;23.60;67.30;;;;;;5040909;28;20441;-81
2022/05/23 12:47:10;;;;;;;6.30;2.10;;;23.60;68.90;;;;;;5075097;28;20091;-81
2022/05/23 12:49:39;;;;;;;4.13;1.80;;;23.60;68.70;;;;;;5073405;28;20048;-82
2022/05/23 12:52:20;;;;;;;4.95;1.85;;;23.60;68.70;;;;;;5057058;28;20055;-82
2022/05/23 12:55:20;;;;;;;2.80;1.70;;;23.70;69.90;;;;;;5057797;28;20052;-82
2022/05/23 12:58:05;;;;;;;5.88;2.05;;;23.70;70.70;;;;;;5065409;28;20052;-82
2022/05/23 13:00:34;;;;;;;2.80;1.75;;;23.60;71.10;;;;;;5073999;28;20048;-82
2022/05/23 13:03:14;;;;;;;4.82;2.10;;;23.50;71.10;;;;;;5056574;28;20505;-82
2022/05/23 13:05:44;;;;;;;4.53;1.90;;;23.50;71.10;;;;;;5073285;28;20412;-83
2022/05/23 13:08:36;;;;;;;4.78;2.00;;;23.40;71.40;;;;;;5073387;28;20044;-83
2022/05/23 13:11:07;;;;;;;3.92;1.98;;;23.30;72.00;;;;;;5059298;28;20048;-84
2022/05/23 13:13:35;;;;;;;5.68;2.10;;;23.20;72.60;;;;;;5040499;28;20087;-82
2022/05/23 13:16:17;;;;;;;3.90;2.00;;;23.20;74.80;;;;;;5057013;28;20448;-83
2022/05/23 13:24:48;;;;;;;4.63;2.00;;;23.00;76.30;;;;;;5073394;28;20049;-83
2022/05/23 13:27:03;;;;;;;2.80;1.80;;;22.90;76.70;;;;;;5045302;28;20131;-84
2022/05/23 13:29:29;;;;;;;3.72;2.17;;;22.70;78.20;;;;;;5073697;28;20079;-84
2022/05/23 13:32:11;;;;;;;4.25;2.20;;;22.70;78.10;;;;;;5089980;28;20040;-83
2022/05/23 13:34:39;;;;;;;4.57;2.08;;;22.60;78.70;;;;;;5072587;28;20504;-83
2022/05/23 13:37:06;;;;;;;3.60;1.95;;;22.60;79.80;;;;;;5072769;28;20048;-83
2022/05/23 13:39:32;;;;;;;3.92;2.05;;;22.50;79.80;;;;;;5056168;28;20040;-83
2022/05/23 13:42:02;;;;;;;3.60;2.20;;;22.50;81.00;;;;;;5072881;28;20044;-81
2022/05/23 13:44:30;;;;;;;8.60;2.80;;;22.50;81.30;;;;;;5073206;28;20099;-83
2022/05/23 13:47:05;;;;;;;4.20;2.53;;;22.50;82.10;;;;;;5072686;28;20565;-83
2022/05/23 13:49:55;;;;;;;7.32;2.70;;;22.50;84.10;;;;;;5055725;28;20412;-91
2022/05/23 13:52:26;;;;;;;;;;;22.50;83.10;;;;;;5072227;28;20044;-83
2022/05/23 13:55:06;;;;;;;6.88;2.70;;;22.50;84.40;;;;;;5073831;28;20019;-83
2022/05/23 13:57:39;;;;;;;5.28;2.90;;;22.60;82.70;;;;;;5056295;28;20054;-90
2022/05/23 14:00:21;;;;;;;4.00;2.30;;;22.80;80.40;;;;;;5072891;28;20045;-83
2022/05/23 14:02:53;;;;;;;4.63;2.15;;;22.80;83.00;;;;;;5056551;28;20044;-83
2022/05/23 14:05:20;;;;;;;3.15;2.30;;;22.90;81.10;;;;;;5056040;28;20091;-83
2022/05/23 14:07:46;;;;;;;4.28;2.30;;;23.00;80.40;;;;;;5060178;28;20428;-84
2022/05/23 14:10:13;;;;;;;7.28;2.30;;;23.00;81.40;;;;;;5075276;28;20132;-83
2022/05/23 14:12:39;;;;;;;3.50;2.25;;;23.00;81.50;;;;;;5065204;28;20064;-84
2022/05/23 14:15:12;;;;;;;3.85;2.17;;;23.10;80.40;;;;;;5088798;28;20048;-83
2022/05/23 14:17:47;;;;;;;4.53;2.15;;;23.10;80.00;;;;;;5038921;28;20052;-84
2022/05/23 14:20:30;;;;;;;4.55;2.20;;;23.10;80.20;;;;;;5092791;28;20048;-84
2022/05/23 14:23:02;;;;;;;4.70;2.53;;;23.10;80.30;;;;;;5072594;28;20396;-83
2022/05/23 14:25:35;;;;;;;4.45;2.47;;;23.10;80.10;;;;;;5093438;28;20485;-83